Time;durP1;ratioP1;P1;durP2;ratioP2;P2;SDS_P1;SDS_P2;PMS_P1;PMS_P2;Temp;Humidity;BMP_temperature;BMP_pressure;BME280_temperature;BME280_humidity;BME280_pressure;Samples;Min_cycle;Max_cycle;Signal;HPM_P1;HPM_P2
2022/10/09 00:02:17;;;;;;;2.72;1.38;;;;;;;;;;5015226;28;20043;-64
2022/10/09 00:04:42;;;;;;;3.63;1.38;;;;;;;;;;5005809;28;20061;-64
2022/10/09 00:07:08;;;;;;;2.95;1.65;;;;;;;;;;5002664;28;20030;-64
2022/10/09 00:09:33;;;;;;;2.42;1.45;;;;;;;;;;5009791;28;20465;-64
2022/10/09 00:11:58;;;;;;;2.75;1.40;;;;;;;;;;5014748;28;20042;-64
2022/10/09 00:14:24;;;;;;;2.67;1.30;;;;;;;;;;5016096;28;20034;-64
2022/10/09 00:16:49;;;;;;;3.15;1.58;;;;;;;;;;5016002;28;20070;-64
2022/10/09 00:19:15;;;;;;;3.45;1.45;;;;;;;;;;5014345;28;20037;-64
2022/10/09 00:21:40;;;;;;;3.33;1.52;;;;;;;;;;5014306;28;20553;-64
2022/10/09 00:24:05;;;;;;;2.97;1.83;;;;;;;;;;5015926;28;20052;-64
2022/10/09 00:26:31;;;;;;;2.40;1.20;;;;;;;;;;5011150;28;20046;-64
2022/10/09 00:28:57;;;;;;;2.67;1.60;;;;;;;;;;5012848;28;20037;-64
2022/10/09 00:31:22;;;;;;;3.05;1.40;;;;;;;;;;5019832;28;20069;-64
2022/10/09 00:33:48;;;;;;;2.70;1.10;;;;;;;;;;5019837;28;20167;-64
2022/10/09 00:36:19;;;;;;;2.65;1.45;;;;;;;;;;5016572;28;20034;-64
2022/10/09 00:38:45;;;;;;;2.75;1.40;;;;;;;;;;5019213;28;20615;-64
2022/10/09 00:41:15;;;;;;;2.50;1.30;;;;;;;;;;5005831;28;20125;-64
2022/10/09 00:43:46;;;;;;;2.60;1.38;;;;;;;;;;5005782;28;20074;-64
2022/10/09 00:46:30;;;;;;;2.38;1.17;;;;;;;;;;5014463;28;20041;-64
2022/10/09 00:49:00;;;;;;;3.15;1.33;;;;;;;;;;5017532;28;20121;-64
2022/10/09 00:51:27;;;;;;;4.35;1.40;;;;;;;;;;5004046;28;20050;-64
2022/10/09 00:53:52;;;;;;;2.67;1.42;;;;;;;;;;5006558;28;20038;-64
2022/10/09 00:56:18;;;;;;;2.60;1.20;;;;;;;;;;5015056;28;20037;-64
2022/10/09 00:58:43;;;;;;;2.67;1.48;;;;;;;;;;5027771;28;20037;-64
2022/10/09 01:01:09;;;;;;;3.35;1.30;;;;;;;;;;5030340;28;20157;-64
2022/10/09 01:03:34;;;;;;;2.58;1.48;;;;;;;;;;5018050;28;20056;-64
2022/10/09 01:06:05;;;;;;;2.70;1.30;;;;;;;;;;5020992;28;20386;-64
2022/10/09 01:08:37;;;;;;;4.10;1.50;;;;;;;;;;5009784;28;20053;-64
2022/10/09 01:11:21;;;;;;;3.50;1.42;;;;;;;;;;5003409;28;20042;-64
2022/10/09 01:13:56;;;;;;;2.85;1.30;;;;;;;;;;5019130;28;20493;-63
2022/10/09 01:16:26;;;;;;;2.83;1.30;;;;;;;;;;5018526;28;20057;-64
2022/10/09 01:19:05;;;;;;;4.25;1.50;;;;;;;;;;5013484;28;20112;-64
2022/10/09 01:21:34;;;;;;;2.83;1.50;;;;;;;;;;5002509;28;20091;-64
2022/10/09 01:24:08;;;;;;;4.22;1.30;;;;;;;;;;5008875;28;20037;-64
2022/10/09 01:27:07;;;;;;;2.80;1.23;;;;;;;;;;5005999;28;20045;-64
2022/10/09 01:29:45;;;;;;;2.72;1.40;;;;;;;;;;5005707;28;20038;-64
2022/10/09 01:32:13;;;;;;;3.03;1.25;;;;;;;;;;5033584;28;20060;-64
2022/10/09 01:34:39;;;;;;;2.30;1.30;;;;;;;;;;5005286;28;20046;-64
2022/10/09 01:37:06;;;;;;;2.92;1.40;;;;;;;;;;5027136;28;20062;-65
2022/10/09 01:39:33;;;;;;;2.42;1.23;;;;;;;;;;5015093;28;20038;-64
2022/10/09 01:41:58;;;;;;;3.67;1.65;;;;;;;;;;5015510;28;20087;-64
2022/10/09 01:44:27;;;;;;;2.55;1.40;;;;;;;;;;5014631;28;20112;-64
2022/10/09 01:46:52;;;;;;;2.63;1.45;;;;;;;;;;5002726;28;20605;-64
2022/10/09 01:49:38;;;;;;;3.33;1.35;;;;;;;;;;5013166;28;20073;-64
2022/10/09 01:52:37;;;;;;;2.80;1.38;;;;;;;;;;4994968;28;20049;-64
2022/10/09 01:55:10;;;;;;;2.50;1.27;;;;;;;;;;5009292;28;20097;-64
2022/10/09 01:57:50;;;;;;;2.60;1.25;;;;;;;;;;5018257;28;20431;-64
2022/10/09 02:00:16;;;;;;;3.75;1.60;;;;;;;;;;5008622;28;20050;-64
2022/10/09 02:02:42;;;;;;;3.17;1.45;;;;;;;;;;4996863;28;20042;-64
2022/10/09 02:05:14;;;;;;;2.85;1.52;;;;;;;;;;5007916;28;20050;-64
2022/10/09 02:07:40;;;;;;;2.40;1.27;;;;;;;;;;5010893;28;20117;-64
2022/10/09 02:10:07;;;;;;;2.53;1.33;;;;;;;;;;5015706;28;20132;-64
2022/10/09 02:12:37;;;;;;;2.47;1.40;;;;;;;;;;5013246;28;20030;-64
2022/10/09 02:15:03;;;;;;;2.72;1.50;;;;;;;;;;5015374;28;20036;-65
2022/10/09 02:17:32;;;;;;;2.65;1.20;;;;;;;;;;5029273;28;20046;-64
2022/10/09 02:20:03;;;;;;;2.38;1.40;;;;;;;;;;5012431;28;20041;-63
2022/10/09 02:22:29;;;;;;;2.65;1.30;;;;;;;;;;5012096;28;20037;-64
2022/10/09 02:25:00;;;;;;;2.60;1.20;;;;;;;;;;5023758;28;20065;-63
2022/10/09 02:27:26;;;;;;;2.50;1.40;;;;;;;;;;5013075;28;20061;-64
2022/10/09 02:29:52;;;;;;;2.38;1.45;;;;;;;;;;5013131;28;20037;-64
2022/10/09 02:32:18;;;;;;;2.70;1.33;;;;;;;;;;5018011;28;20092;-63
2022/10/09 02:34:43;;;;;;;2.28;1.23;;;;;;;;;;5017748;28;20062;-64
2022/10/09 02:37:09;;;;;;;2.08;1.10;;;;;;;;;;5016513;28;20065;-64
2022/10/09 02:39:35;;;;;;;3.92;1.20;;;;;;;;;;5017559;28;20390;-64
2022/10/09 02:42:00;;;;;;;2.65;1.20;;;;;;;;;;5005446;28;20030;-64
2022/10/09 02:44:26;;;;;;;2.33;1.20;;;;;;;;;;5011248;28;20034;-64
2022/10/09 02:46:51;;;;;;;2.63;1.17;;;;;;;;;;5017721;28;20034;-63
2022/10/09 02:49:17;;;;;;;2.83;1.52;;;;;;;;;;5020350;28;20091;-64
2022/10/09 02:51:42;;;;;;;2.35;1.30;;;;;;;;;;5017498;28;20048;-64
2022/10/09 02:54:08;;;;;;;2.75;1.40;;;;;;;;;;5019351;28;20494;-64
2022/10/09 02:56:33;;;;;;;3.78;1.20;;;;;;;;;;5016566;28;20033;-64
2022/10/09 02:58:59;;;;;;;2.40;1.20;;;;;;;;;;5017839;28;20034;-63
2022/10/09 03:01:24;;;;;;;2.63;1.23;;;;;;;;;;5017437;28;20363;-64
2022/10/09 03:03:50;;;;;;;2.80;1.40;;;;;;;;;;5015508;28;20497;-64
2022/10/09 03:06:18;;;;;;;2.30;1.10;;;;;;;;;;5015860;28;20124;-64
2022/10/09 03:08:45;;;;;;;2.67;1.13;;;;;;;;;;5017122;28;20116;-64
2022/10/09 03:11:11;;;;;;;2.85;1.17;;;;;;;;;;5016021;28;20116;-64
2022/10/09 03:13:38;;;;;;;2.92;1.20;;;;;;;;;;5001171;28;20382;-64
2022/10/09 03:16:08;;;;;;;2.33;1.25;;;;;;;;;;5015880;28;20076;-64
2022/10/09 03:18:33;;;;;;;3.05;1.60;;;;;;;;;;5013038;28;20120;-64
2022/10/09 03:20:59;;;;;;;2.58;1.30;;;;;;;;;;5004771;28;20441;-64
2022/10/09 03:23:25;;;;;;;2.35;1.23;;;;;;;;;;5007414;28;20039;-63
2022/10/09 03:26:01;;;;;;;2.22;1.20;;;;;;;;;;5013956;28;20393;-64
2022/10/09 03:28:27;;;;;;;3.15;1.48;;;;;;;;;;5016157;28;20481;-64
2022/10/09 03:30:52;;;;;;;2.35;1.00;;;;;;;;;;5017093;28;20040;-63
2022/10/09 03:33:18;;;;;;;2.47;1.23;;;;;;;;;;5013458;28;20038;-64
2022/10/09 03:35:45;;;;;;;2.15;1.20;;;;;;;;;;5014081;28;20478;-64
2022/10/09 03:38:11;;;;;;;2.05;1.15;;;;;;;;;;5014709;28;20029;-64
2022/10/09 03:40:36;;;;;;;2.78;1.20;;;;;;;;;;5007186;28;20076;-64
2022/10/09 03:43:02;;;;;;;2.55;1.27;;;;;;;;;;5015124;28;20478;-64
2022/10/09 03:45:27;;;;;;;3.17;1.10;;;;;;;;;;5016044;28;20381;-64
2022/10/09 03:47:53;;;;;;;2.67;1.25;;;;;;;;;;5009995;28;20115;-64
2022/10/09 03:50:18;;;;;;;2.80;1.10;;;;;;;;;;5013991;28;20477;-63
2022/10/09 03:52:43;;;;;;;2.35;1.08;;;;;;;;;;5015178;28;20034;-64
2022/10/09 03:55:09;;;;;;;2.80;1.10;;;;;;;;;;5014289;28;20548;-64
2022/10/09 03:57:34;;;;;;;2.40;1.20;;;;;;;;;;5011109;28;20042;-64
2022/10/09 04:00:00;;;;;;;2.75;1.35;;;;;;;;;;5014060;28;20034;-63
2022/10/09 04:02:25;;;;;;;2.67;1.20;;;;;;;;;;5017549;28;20040;-64
2022/10/09 04:04:51;;;;;;;2.60;1.33;;;;;;;;;;5017489;28;20058;-64
2022/10/09 04:07:16;;;;;;;2.20;1.00;;;;;;;;;;5014760;28;20384;-64
2022/10/09 04:09:41;;;;;;;2.17;1.30;;;;;;;;;;5008877;28;20045;-64
2022/10/09 04:12:07;;;;;;;2.20;1.20;;;;;;;;;;5007172;28;20466;-64
2022/10/09 04:14:32;;;;;;;2.40;1.20;;;;;;;;;;5018222;28;20096;-64
2022/10/09 04:16:58;;;;;;;2.50;1.30;;;;;;;;;;5013808;28;20489;-64
2022/10/09 04:19:23;;;;;;;2.08;1.10;;;;;;;;;;5009500;28;20046;-64
2022/10/09 04:21:48;;;;;;;2.03;1.10;;;;;;;;;;5007707;28;20041;-63
2022/10/09 04:24:14;;;;;;;2.25;1.20;;;;;;;;;;5017838;28;20489;-64
2022/10/09 04:26:40;;;;;;;2.63;1.35;;;;;;;;;;5014656;28;20041;-64
2022/10/09 04:29:06;;;;;;;2.35;1.17;;;;;;;;;;5017354;28;20421;-64
2022/10/09 04:31:31;;;;;;;2.47;1.10;;;;;;;;;;5016874;28;20033;-64
2022/10/09 04:33:56;;;;;;;2.45;1.17;;;;;;;;;;5014291;28;20042;-64
2022/10/09 04:36:22;;;;;;;2.83;1.40;;;;;;;;;;5014166;28;20109;-64
2022/10/09 04:38:47;;;;;;;2.22;1.00;;;;;;;;;;5015526;28;20037;-64
2022/10/09 04:41:13;;;;;;;2.20;1.25;;;;;;;;;;5014087;28;20045;-64
2022/10/09 04:43:38;;;;;;;2.53;1.33;;;;;;;;;;5018759;28;20025;-64
2022/10/09 04:46:09;;;;;;;2.90;1.20;;;;;;;;;;5018902;28;20034;-64
2022/10/09 04:48:42;;;;;;;2.95;1.40;;;;;;;;;;5009378;28;20504;-64
2022/10/09 04:51:09;;;;;;;2.60;1.30;;;;;;;;;;5015022;28;20420;-63
2022/10/09 04:53:35;;;;;;;2.50;1.38;;;;;;;;;;5011289;28;20065;-64
2022/10/09 04:56:06;;;;;;;2.85;1.27;;;;;;;;;;5016985;28;20092;-63
2022/10/09 04:58:31;;;;;;;3.08;1.23;;;;;;;;;;5017574;28;20110;-64
2022/10/09 05:00:57;;;;;;;1.80;1.00;;;;;;;;;;5003944;28;20046;-63
2022/10/09 05:03:22;;;;;;;3.50;1.05;;;;;;;;;;5017748;28;20026;-64
2022/10/09 05:05:48;;;;;;;4.32;1.20;;;;;;;;;;4996021;28;20050;-64
2022/10/09 05:08:13;;;;;;;2.50;1.05;;;;;;;;;;5008391;28;20038;-64
2022/10/09 05:10:39;;;;;;;2.40;1.20;;;;;;;;;;5013915;28;20037;-63
2022/10/09 05:13:04;;;;;;;2.47;1.20;;;;;;;;;;5013746;28;20083;-64
2022/10/09 05:15:30;;;;;;;2.08;1.10;;;;;;;;;;5014982;28;20034;-64
2022/10/09 05:17:55;;;;;;;2.58;1.02;;;;;;;;;;5013836;28;20381;-64
2022/10/09 05:20:21;;;;;;;3.00;1.15;;;;;;;;;;5023649;28;20121;-64
2022/10/09 05:22:47;;;;;;;3.58;1.40;;;;;;;;;;5000280;28;20045;-64
2022/10/09 05:25:12;;;;;;;2.03;1.10;;;;;;;;;;5017035;28;20103;-64
2022/10/09 05:27:38;;;;;;;1.90;1.10;;;;;;;;;;5012122;28;20113;-64
2022/10/09 05:30:05;;;;;;;2.35;1.08;;;;;;;;;;5017401;28;20128;-64
2022/10/09 05:32:30;;;;;;;2.30;1.17;;;;;;;;;;5009463;28;20041;-64
2022/10/09 05:34:56;;;;;;;2.00;1.05;;;;;;;;;;5015424;28;20022;-64
2022/10/09 05:37:21;;;;;;;1.95;1.02;;;;;;;;;;5006250;28;20046;-64
2022/10/09 05:39:46;;;;;;;2.28;1.00;;;;;;;;;;5012084;28;20044;-63
2022/10/09 05:42:12;;;;;;;5.30;1.40;;;;;;;;;;5013655;28;20051;-64
2022/10/09 05:44:37;;;;;;;2.17;1.10;;;;;;;;;;5021378;28;20044;-64
2022/10/09 05:47:02;;;;;;;4.22;1.30;;;;;;;;;;5006822;28;20047;-64
2022/10/09 05:49:28;;;;;;;2.10;1.10;;;;;;;;;;5005763;28;20500;-64
2022/10/09 05:51:54;;;;;;;1.85;1.05;;;;;;;;;;5008940;28;20104;-64
2022/10/09 05:54:20;;;;;;;2.15;1.15;;;;;;;;;;4998522;28;20068;-64
2022/10/09 05:56:46;;;;;;;3.25;1.42;;;;;;;;;;4998979;28;20066;-65
2022/10/09 05:59:14;;;;;;;2.30;1.05;;;;;;;;;;5004513;28;20040;-64
2022/10/09 06:01:45;;;;;;;2.70;1.30;;;;;;;;;;4999592;28;20486;-64
2022/10/09 06:04:19;;;;;;;1.88;0.98;;;;;;;;;;5008859;28;20123;-64
2022/10/09 06:06:47;;;;;;;2.40;1.23;;;;;;;;;;5009360;28;20500;-64
2022/10/09 06:09:14;;;;;;;2.67;1.45;;;;;;;;;;5004018;28;20393;-64
2022/10/09 06:11:40;;;;;;;3.08;1.33;;;;;;;;;;5017308;28;20046;-64
2022/10/09 06:14:07;;;;;;;4.65;1.02;;;;;;;;;;5014672;28;20046;-63
2022/10/09 06:16:35;;;;;;;2.08;1.00;;;;;;;;;;5017252;28;20033;-64
2022/10/09 06:19:00;;;;;;;2.22;1.20;;;;;;;;;;4999291;28;20042;-64
2022/10/09 06:21:26;;;;;;;2.35;1.20;;;;;;;;;;5017015;28;20497;-65
2022/10/09 06:23:57;;;;;;;2.55;1.10;;;;;;;;;;5019148;28;20529;-64
2022/10/09 06:26:23;;;;;;;1.80;1.02;;;;;;;;;;5016448;28;20041;-63
2022/10/09 06:28:49;;;;;;;2.17;1.00;;;;;;;;;;5026917;28;20042;-60
2022/10/09 06:31:20;;;;;;;5.97;1.10;;;;;;;;;;5006293;28;20085;-59
2022/10/09 06:33:47;;;;;;;3.05;1.17;;;;;;;;;;5006349;28;20045;-60
2022/10/09 06:36:17;;;;;;;4.90;1.08;;;;;;;;;;5015730;28;20034;-58
2022/10/09 06:38:43;;;;;;;4.45;0.93;;;;;;;;;;5024714;28;20041;-64
2022/10/09 06:41:16;;;;;;;1.88;0.90;;;;;;;;;;5012897;28;20042;-65
2022/10/09 06:43:42;;;;;;;2.40;1.20;;;;;;;;;;5008725;28;20031;-65
2022/10/09 06:46:11;;;;;;;4.32;1.50;;;;;;;;;;5010635;28;20393;-64
2022/10/09 06:48:38;;;;;;;4.75;1.40;;;;;;;;;;5008882;28;20061;-66
2022/10/09 06:51:05;;;;;;;4.72;1.65;;;;;;;;;;5016439;28;20030;-64
2022/10/09 06:53:34;;;;;;;3.28;1.23;;;;;;;;;;5015068;28;20409;-65
2022/10/09 06:55:59;;;;;;;3.00;1.27;;;;;;;;;;5016403;28;20044;-64
2022/10/09 06:58:25;;;;;;;2.70;1.30;;;;;;;;;;5016475;28;20046;-62
2022/10/09 07:01:04;;;;;;;3.05;1.10;;;;;;;;;;5016334;28;20466;-63
2022/10/09 07:03:30;;;;;;;12.77;1.45;;;;;;;;;;5015839;28;20056;-65
2022/10/09 07:06:05;;;;;;;3.17;1.00;;;;;;;;;;4999668;28;20054;-69
2022/10/09 07:08:31;;;;;;;1.95;1.02;;;;;;;;;;5007268;28;20038;-68
2022/10/09 07:10:56;;;;;;;1.90;1.10;;;;;;;;;;5013683;28;20113;-69
2022/10/09 07:13:22;;;;;;;2.33;1.17;;;;;;;;;;5017254;28;20112;-67
2022/10/09 07:15:47;;;;;;;1.80;0.90;;;;;;;;;;5013827;28;20044;-68
2022/10/09 07:18:12;;;;;;;2.30;1.00;;;;;;;;;;5014247;28;20421;-68
2022/10/09 07:20:38;;;;;;;2.60;1.20;;;;;;;;;;5012763;28;20038;-65
2022/10/09 07:23:03;;;;;;;2.70;1.10;;;;;;;;;;5013842;28;20068;-66
2022/10/09 07:25:28;;;;;;;3.72;1.48;;;;;;;;;;5013923;28;20034;-68
2022/10/09 07:27:54;;;;;;;2.45;1.20;;;;;;;;;;5012710;28;20433;-67
2022/10/09 07:30:20;;;;;;;3.20;1.17;;;;;;;;;;5014047;28;20133;-65
2022/10/09 07:32:45;;;;;;;2.22;1.10;;;;;;;;;;5017828;28;20061;-63
2022/10/09 07:35:11;;;;;;;2.50;1.10;;;;;;;;;;5011660;28;20032;-64
2022/10/09 07:37:36;;;;;;;3.63;1.17;;;;;;;;;;5015062;28;20389;-63
2022/10/09 07:40:01;;;;;;;3.30;1.35;;;;;;;;;;5011065;28;20029;-60
2022/10/09 07:42:27;;;;;;;2.78;1.10;;;;;;;;;;5013071;28;20049;-61
2022/10/09 07:44:52;;;;;;;3.60;1.48;;;;;;;;;;5019205;28;20041;-60
2022/10/09 07:47:18;;;;;;;2.53;1.20;;;;;;;;;;5012706;28;20108;-61
2022/10/09 07:49:43;;;;;;;2.75;1.25;;;;;;;;;;5015736;28;20066;-60
2022/10/09 07:52:08;;;;;;;12.10;1.65;;;;;;;;;;5014317;28;20033;-61
2022/10/09 07:54:34;;;;;;;6.88;1.60;;;;;;;;;;5019383;28;20038;-65
2022/10/09 07:56:59;;;;;;;8.25;1.95;;;;;;;;;;5013243;28;20092;-63
2022/10/09 07:59:24;;;;;;;7.88;1.60;;;;;;;;;;5033510;28;20049;-60
2022/10/09 08:01:50;;;;;;;3.83;1.13;;;;;;;;;;5018255;28;20446;-65
2022/10/09 08:04:15;;;;;;;5.25;1.25;;;;;;;;;;5024988;28;20037;-63
2022/10/09 08:06:41;;;;;;;5.72;1.23;;;;;;;;;;5016572;28;20042;-63
2022/10/09 08:09:06;;;;;;;3.90;1.30;;;;;;;;;;5007501;28;20049;-63
2022/10/09 08:11:32;;;;;;;4.70;1.30;;;;;;;;;;4998533;28;20497;-64
2022/10/09 08:13:58;;;;;;;3.92;1.27;;;;;;;;;;5006809;28;20033;-65
2022/10/09 08:16:25;;;;;;;4.10;1.50;;;;;;;;;;5005955;28;20038;-65
2022/10/09 08:18:58;;;;;;;3.15;1.08;;;;;;;;;;5009643;28;20037;-65
2022/10/09 08:21:26;;;;;;;4.55;1.30;;;;;;;;;;5011142;28;20045;-65
2022/10/09 08:23:53;;;;;;;2.60;1.05;;;;;;;;;;5005489;28;20026;-66
2022/10/09 08:26:21;;;;;;;6.60;1.55;;;;;;;;;;5011731;28;20489;-65
2022/10/09 08:28:55;;;;;;;3.50;1.15;;;;;;;;;;5011474;28;20038;-67
2022/10/09 08:31:21;;;;;;;4.10;1.58;;;;;;;;;;5021857;28;20041;-65
2022/10/09 08:33:46;;;;;;;11.82;2.03;;;;;;;;;;5013481;28;20038;-64
2022/10/09 08:36:16;;;;;;;4.90;1.95;;;;;;;;;;5005628;28;20109;-72
2022/10/09 08:38:42;;;;;;;4.85;1.27;;;;;;;;;;5008858;28;20034;-64
2022/10/09 08:41:24;;;;;;;4.22;1.35;;;;;;;;;;5017778;28;20041;-65
2022/10/09 08:44:00;;;;;;;5.78;1.38;;;;;;;;;;5010567;28;20050;-64
2022/10/09 08:46:34;;;;;;;8.38;1.50;;;;;;;;;;5010600;28;20493;-65
2022/10/09 08:49:02;;;;;;;6.50;1.40;;;;;;;;;;5006366;28;20478;-65
2022/10/09 08:51:31;;;;;;;9.90;1.50;;;;;;;;;;5001336;28;20491;-65
2022/10/09 08:54:03;;;;;;;2.63;1.05;;;;;;;;;;5010604;28;20042;-65
2022/10/09 08:56:29;;;;;;;7.27;1.40;;;;;;;;;;5013505;28;20123;-67
2022/10/09 08:58:55;;;;;;;5.55;1.25;;;;;;;;;;5025862;28;20088;-67
2022/10/09 09:01:42;;;;;;;3.05;1.13;;;;;;;;;;5019327;28;20073;-65
2022/10/09 09:04:58;;;;;;;3.53;1.27;;;;;;;;;;5016326;28;20049;-64
2022/10/09 09:07:31;;;;;;;3.97;1.50;;;;;;;;;;5014206;28;20042;-64
2022/10/09 09:10:30;;;;;;;7.60;1.45;;;;;;;;;;5017827;28;20056;-64
2022/10/09 09:13:00;;;;;;;3.28;1.30;;;;;;;;;;5010614;28;20044;-64
2022/10/09 09:15:46;;;;;;;5.22;1.45;;;;;;;;;;5015446;28;20784;-64
2022/10/09 09:18:42;;;;;;;4.22;1.20;;;;;;;;;;5008637;28;20034;-64
2022/10/09 09:21:31;;;;;;;3.35;1.15;;;;;;;;;;5010956;28;20038;-66
2022/10/09 09:23:57;;;;;;;3.05;1.27;;;;;;;;;;5004669;28;20046;-65
2022/10/09 09:26:22;;;;;;;4.47;1.42;;;;;;;;;;5011985;28;20076;-63
2022/10/09 09:28:52;;;;;;;4.60;1.25;;;;;;;;;;5008138;28;20433;-65
2022/10/09 09:31:35;;;;;;;3.13;1.23;;;;;;;;;;5006418;28;20026;-64
2022/10/09 09:34:04;;;;;;;;;;;;;;;;;;5013357;28;20042;-64
2022/10/09 09:36:29;;;;;;;3.33;1.42;;;;;;;;;;5013207;28;19916;-65
2022/10/09 09:38:54;;;;;;;5.45;1.30;;;;;;;;;;5012829;28;20033;-63
2022/10/09 09:41:20;;;;;;;4.20;1.20;;;;;;;;;;5011070;28;20038;-65
2022/10/09 09:43:45;;;;;;;5.38;1.40;;;;;;;;;;5013268;28;20037;-63
2022/10/09 09:46:16;;;;;;;5.13;1.35;;;;;;;;;;5013448;28;20088;-65
2022/10/09 09:48:47;;;;;;;1.80;0.90;;;;;;;;;;5011677;28;20385;-65
2022/10/09 09:51:21;;;;;;;3.15;1.20;;;;;;;;;;4997469;28;20129;-65
2022/10/09 09:53:50;;;;;;;6.47;1.40;;;;;;;;;;5008464;28;20045;-65
2022/10/09 09:56:16;;;;;;;5.30;1.10;;;;;;;;;;5004090;28;20030;-65
2022/10/09 09:58:48;;;;;;;3.70;1.23;;;;;;;;;;5011000;28;20544;-65
2022/10/09 10:01:27;;;;;;;3.72;1.10;;;;;;;;;;5013237;28;20074;-63
2022/10/09 10:03:56;;;;;;;3.28;1.23;;;;;;;;;;5001881;28;20041;-63
2022/10/09 10:06:44;;;;;;;2.75;1.13;;;;;;;;;;5011398;28;20053;-65
2022/10/09 10:09:17;;;;;;;2.45;1.13;;;;;;;;;;5003013;28;20053;-64
2022/10/09 10:11:53;;;;;;;4.25;1.15;;;;;;;;;;5010920;28;20436;-65
2022/10/09 10:14:19;;;;;;;5.00;1.52;;;;;;;;;;5012932;28;20406;-64
2022/10/09 10:16:48;;;;;;;3.58;1.15;;;;;;;;;;5011746;28;20096;-64
2022/10/09 10:19:25;;;;;;;2.60;1.23;;;;;;;;;;5012702;28;20389;-65
2022/10/09 10:22:01;;;;;;;3.25;1.20;;;;;;;;;;5013109;28;20474;-64
2022/10/09 10:24:40;;;;;;;3.72;1.23;;;;;;;;;;5013237;28;20126;-64
2022/10/09 10:27:14;;;;;;;3.83;1.13;;;;;;;;;;5012796;28;20045;-65
2022/10/09 10:29:41;;;;;;;1.80;0.82;;;;;;;;;;5013206;28;20443;-64
2022/10/09 10:32:16;;;;;;;2.10;1.00;;;;;;;;;;5011583;28;20555;-64
2022/10/09 10:35:15;;;;;;;2.55;1.00;;;;;;;;;;5004646;28;20033;-65
2022/10/09 10:38:05;;;;;;;1.60;0.80;;;;;;;;;;5004817;28;20104;-64
2022/10/09 10:40:36;;;;;;;2.28;0.90;;;;;;;;;;5011189;28;20149;-63
2022/10/09 10:43:08;;;;;;;3.17;1.10;;;;;;;;;;5012836;28;20049;-64
2022/10/09 10:45:42;;;;;;;2.70;1.20;;;;;;;;;;5013177;28;20032;-64
2022/10/09 10:48:15;;;;;;;1.88;0.90;;;;;;;;;;4999705;28;20042;-65
2022/10/09 10:50:48;;;;;;;2.90;1.00;;;;;;;;;;5004594;28;20044;-65
2022/10/09 10:53:55;;;;;;;2.67;1.00;;;;;;;;;;5015435;28;20045;-65
2022/10/09 10:56:35;;;;;;;1.88;1.00;;;;;;;;;;5014018;28;20038;-65
2022/10/09 10:59:12;;;;;;;2.05;0.95;;;;;;;;;;5014661;28;20473;-65
2022/10/09 11:01:51;;;;;;;2.55;1.10;;;;;;;;;;5016311;28;20029;-64
2022/10/09 11:04:40;;;;;;;5.07;1.00;;;;;;;;;;5022591;28;20037;-65
2022/10/09 11:07:12;;;;;;;3.33;1.10;;;;;;;;;;5009572;28;20090;-65
2022/10/09 11:09:59;;;;;;;5.95;1.20;;;;;;;;;;5012073;28;20101;-63
2022/10/09 11:13:08;;;;;;;5.20;1.15;;;;;;;;;;5013969;28;20033;-65
2022/10/09 11:15:55;;;;;;;2.85;0.90;;;;;;;;;;4993302;28;20046;-65
2022/10/09 11:18:54;;;;;;;1.98;0.98;;;;;;;;;;5016137;28;20124;-65
2022/10/09 11:21:26;;;;;;;3.15;1.02;;;;;;;;;;5005599;28;20069;-65
2022/10/09 11:24:16;;;;;;;2.50;0.93;;;;;;;;;;5009944;28;20109;-64
2022/10/09 11:26:51;;;;;;;2.90;1.02;;;;;;;;;;5028974;28;20504;-65
2022/10/09 11:29:21;;;;;;;4.05;1.00;;;;;;;;;;5009248;28;20026;-65
2022/10/09 11:31:52;;;;;;;2.50;0.85;;;;;;;;;;5015538;28;20108;-64
2022/10/09 11:34:45;;;;;;;4.22;1.08;;;;;;;;;;5013050;28;20533;-65
2022/10/09 11:37:18;;;;;;;4.22;1.10;;;;;;;;;;5014701;28;20052;-66
2022/10/09 11:39:44;;;;;;;2.35;0.80;;;;;;;;;;5013699;28;20496;-65
2022/10/09 11:42:11;;;;;;;2.47;1.15;;;;;;;;;;5004980;28;20042;-67
2022/10/09 11:44:48;;;;;;;2.70;0.90;;;;;;;;;;5001521;28;20041;-67
2022/10/09 11:47:14;;;;;;;5.68;1.10;;;;;;;;;;5013108;28;20545;-65
2022/10/09 11:49:49;;;;;;;2.70;0.98;;;;;;;;;;5014179;28;20120;-67
2022/10/09 11:52:42;;;;;;;3.53;1.05;;;;;;;;;;5015690;28;20089;-65
2022/10/09 11:55:37;;;;;;;8.05;1.35;;;;;;;;;;5007838;28;20076;-64
2022/10/09 11:58:19;;;;;;;11.18;1.08;;;;;;;;;;5004756;28;20046;-64
2022/10/09 12:00:49;;;;;;;4.95;0.95;;;;;;;;;;5014598;28;20129;-65
2022/10/09 12:03:31;;;;;;;3.80;1.10;;;;;;;;;;5001328;28;20109;-62
2022/10/09 12:06:08;;;;;;;3.10;1.10;;;;;;;;;;5001956;28;20046;-66
2022/10/09 12:08:33;;;;;;;3.67;1.38;;;;;;;;;;5014116;28;20037;-73
2022/10/09 12:11:14;;;;;;;2.75;1.00;;;;;;;;;;5027554;28;20136;-71
2022/10/09 12:13:41;;;;;;;3.78;1.02;;;;;;;;;;5013490;28;20053;-69
2022/10/09 12:16:10;;;;;;;5.63;1.00;;;;;;;;;;5002620;28;20050;-72
2022/10/09 12:18:38;;;;;;;4.95;1.10;;;;;;;;;;4995840;28;20038;-72
2022/10/09 12:21:06;;;;;;;5.28;0.98;;;;;;;;;;5009814;28;20037;-69
2022/10/09 12:23:35;;;;;;;8.23;1.20;;;;;;;;;;5004164;28;20512;-68
2022/10/09 12:26:02;;;;;;;4.88;1.08;;;;;;;;;;5008429;28;20034;-69
2022/10/09 12:28:39;;;;;;;3.97;1.05;;;;;;;;;;5013121;28;20034;-69
2022/10/09 12:31:13;;;;;;;3.92;1.00;;;;;;;;;;5009462;28;20046;-68
2022/10/09 12:33:42;;;;;;;3.28;0.98;;;;;;;;;;5004098;28;20574;-69
2022/10/09 12:36:14;;;;;;;3.08;1.00;;;;;;;;;;5013310;28;20088;-69
2022/10/09 12:38:40;;;;;;;5.32;1.00;;;;;;;;;;5000604;28;20062;-68
2022/10/09 12:41:11;;;;;;;2.20;0.98;;;;;;;;;;5014727;28;20046;-69
2022/10/09 12:43:42;;;;;;;5.88;0.90;;;;;;;;;;5014356;28;20490;-68
2022/10/09 12:46:08;;;;;;;5.15;1.05;;;;;;;;;;5013211;28;20034;-75
2022/10/09 12:48:37;;;;;;;7.13;1.25;;;;;;;;;;5014067;28;20033;-71
2022/10/09 12:51:14;;;;;;;9.38;1.40;;;;;;;;;;5013809;28;20041;-70
2022/10/09 12:53:48;;;;;;;3.25;0.90;;;;;;;;;;5003311;28;20064;-71
2022/10/09 12:56:20;;;;;;;2.25;0.93;;;;;;;;;;5013736;28;20513;-70
2022/10/09 12:58:45;;;;;;;3.22;1.00;;;;;;;;;;5015396;28;20109;-60
2022/10/09 13:01:12;;;;;;;9.30;1.33;;;;;;;;;;5029045;28;20039;-60
2022/10/09 13:03:40;;;;;;;3.58;1.05;;;;;;;;;;5011055;28;20033;-61
2022/10/09 13:06:12;;;;;;;2.30;1.08;;;;;;;;;;5014316;28;20046;-61
2022/10/09 13:08:38;;;;;;;3.72;0.90;;;;;;;;;;5015598;28;20050;-62
2022/10/09 13:11:27;;;;;;;2.42;0.95;;;;;;;;;;5013606;28;20038;-67
2022/10/09 13:13:53;;;;;;;9.63;1.10;;;;;;;;;;5033673;28;20168;-63
2022/10/09 13:16:20;;;;;;;3.42;1.00;;;;;;;;;;5012686;28;20052;-63
2022/10/09 13:19:00;;;;;;;6.88;1.00;;;;;;;;;;5009727;28;20053;-63
2022/10/09 13:21:28;;;;;;;6.07;0.95;;;;;;;;;;5014073;28;20041;-64
2022/10/09 13:23:55;;;;;;;4.93;1.00;;;;;;;;;;5013728;28;20030;-63
2022/10/09 13:26:28;;;;;;;8.25;1.13;;;;;;;;;;5013868;28;20037;-62
2022/10/09 13:28:54;;;;;;;;;;;;;;;;;;5000711;28;20125;-62
2022/10/09 13:31:20;;;;;;;2.67;1.10;;;;;;;;;;5008778;28;19967;-63
2022/10/09 13:33:46;;;;;;;2.50;0.90;;;;;;;;;;5010760;28;20038;-62
2022/10/09 13:36:12;;;;;;;3.40;1.00;;;;;;;;;;5013774;28;20045;-62
2022/10/09 13:38:38;;;;;;;4.40;1.00;;;;;;;;;;5013372;28;20038;-62
2022/10/09 13:41:03;;;;;;;1.95;0.90;;;;;;;;;;5011202;28;20466;-62
2022/10/09 13:43:29;;;;;;;4.03;1.25;;;;;;;;;;5004682;28;20042;-62
2022/10/09 13:45:55;;;;;;;3.85;0.80;;;;;;;;;;5008059;28;20056;-63
2022/10/09 13:48:21;;;;;;;2.58;1.00;;;;;;;;;;5003173;28;20046;-63
2022/10/09 13:50:46;;;;;;;5.20;1.27;;;;;;;;;;5005243;28;20096;-62
2022/10/09 13:53:12;;;;;;;2.13;0.90;;;;;;;;;;5013169;28;20038;-64
2022/10/09 13:55:37;;;;;;;2.40;0.90;;;;;;;;;;5010927;28;20046;-61
2022/10/09 13:58:03;;;;;;;2.08;0.90;;;;;;;;;;5014210;28;20042;-63
2022/10/09 14:00:28;;;;;;;2.92;0.80;;;;;;;;;;5013437;28;20030;-70
2022/10/09 14:02:54;;;;;;;11.77;1.27;;;;;;;;;;5013377;28;20056;-70
2022/10/09 14:05:21;;;;;;;6.95;1.38;;;;;;;;;;5007807;28;20197;-69
2022/10/09 14:07:46;;;;;;;2.25;0.77;;;;;;;;;;5006310;28;20026;-68
2022/10/09 14:10:12;;;;;;;7.22;0.95;;;;;;;;;;5000782;28;20100;-69
2022/10/09 14:12:38;;;;;;;2.60;0.95;;;;;;;;;;5001716;28;20065;-69
2022/10/09 14:15:03;;;;;;;6.13;1.00;;;;;;;;;;5006703;28;20025;-68
2022/10/09 14:17:29;;;;;;;1.90;0.95;;;;;;;;;;5013912;28;20037;-68
2022/10/09 14:19:54;;;;;;;3.55;0.80;;;;;;;;;;5011837;28;20042;-69
2022/10/09 14:22:20;;;;;;;3.38;0.90;;;;;;;;;;5016509;28;20050;-68
2022/10/09 14:24:45;;;;;;;6.18;1.42;;;;;;;;;;5008896;28;20034;-69
2022/10/09 14:27:10;;;;;;;3.78;0.90;;;;;;;;;;5018726;28;20381;-68
2022/10/09 14:29:39;;;;;;;2.40;1.00;;;;;;;;;;5014791;28;20037;-69
2022/10/09 14:32:04;;;;;;;3.05;0.90;;;;;;;;;;5022848;28;20033;-67
2022/10/09 14:34:30;;;;;;;5.55;1.10;;;;;;;;;;5016602;28;20384;-63
2022/10/09 14:36:55;;;;;;;4.80;1.10;;;;;;;;;;5017555;28;20044;-67
2022/10/09 14:39:21;;;;;;;5.68;0.95;;;;;;;;;;5018000;28;20045;-69
2022/10/09 14:41:46;;;;;;;5.22;0.93;;;;;;;;;;5014131;28;20042;-71
2022/10/09 14:44:12;;;;;;;6.55;1.00;;;;;;;;;;5015126;28;20376;-71
2022/10/09 14:46:38;;;;;;;3.92;0.95;;;;;;;;;;5015872;28;20386;-69
2022/10/09 14:49:06;;;;;;;7.97;1.05;;;;;;;;;;5016042;28;20479;-68
2022/10/09 14:51:33;;;;;;;2.83;0.90;;;;;;;;;;5010827;28;20037;-69
2022/10/09 14:53:59;;;;;;;4.07;0.90;;;;;;;;;;5011573;28;20042;-70
2022/10/09 14:56:25;;;;;;;3.05;1.15;;;;;;;;;;5010718;28;20046;-69
2022/10/09 14:58:51;;;;;;;4.30;1.20;;;;;;;;;;5013928;28;20080;-68